Terminal Aerodrome Forecast
Issued by NWS

Home | Current Version | Previous Version | Text Only | Print | Product List | Glossary Off
Versions: 1 2 3 4 5 6 7 8 9 10 11 12 13 14 15 16 17

000
FTUS43 KBIS 211056 AAA
TAFDIK
TAF AMD
KDIK 211056Z 2111/2206 18014KT P6SM BKN016
     FM211500 18015G26KT P6SM FEW020 SCT200
     FM220300 17014KT P6SM FEW080 SCT250=

USA.gov is the U.S. government's official web portal to all federal, state and local government web resources and services.